Moosonee Airport
CYMO : now visible

Airfield :











YOU CAN JOIN US ON...

 
LOGIN :

Register | Disclaimer

   EN    FR    IT 

 









Legend :    VFR   Marginal VFR   IFR   Intensive IFR   Very Intensive IFR
Visi :
Ceiling :
>= 8 km
>= 3000ft
5 to 8 km
1000 to 3000 ft
1500m to 5 km
500 to 1000 ft
800 to 1500m
200 to 500 ft
< 800m
< 200 ft
Symbols :   Thunderstorms  Fog  Heavy snow  Heavy precipitations  Wind > 20 kt






- Airport Elevation : 30 ft
- IATA code : YMO


CYMO - Moosonee

CURRENT METAR :
  • 080717Z AUTO 18013G19KT 4SM -SN BKN023 OVC036 M02/M04 A2964 RMK PRESFR SLP039

EXPIRED METARs :
  • 080701Z AUTO 18013G19KT 9SM -SN OVC023 M02/M05 A2965 RMK SLP044
  • 080614Z AUTO 18016KT 9SM OVC023 M03/M05 A2969 RMK PRESFR SLP057
  • 080600Z AUTO 18012KT 9SM OVC025 M03/M05 A2971 RMK SLP062
  • 080500Z AUTO 18013G19KT 9SM BKN130 OVC150 M03/M06 A2976 RMK PRESFR SLP080

TAF TAF CYMO
Valid from the 08 at 06:00 until the 08 at 18:00 UTC


080538Z 0806/0818 18012G22KT P6SM OVC130
TEMPO 0806/0808 1SM -SN OVC008
FM080800 18015KT 1SM -SN OVC008
TEMPO 0808/0816 21/2SM -SN OVC012
BECMG 0814/0816 32015G25KT
FM081600 32015G25KT 1SM -SN OVC008
TEMPO 0816/0818 5SM -SN OVC015 RMK FCST BASED ON AUTO OBS. NXT FCST BY 081200Z



MET'MAP, your aeronautical weather chart ! - Copyright ORBIFLY December 2007 - Disclaimer

ORBIFLY MET'MAP TEAM :

Programming & Development : Alexandra Zaïnal
Concept & original design : Baudouin d'Aumeries
Assistance for programming : Marc-Olivier Méhu
Technical & hardware support : Manuel Goepfert

Contact : metmap@orbifly.com




SOURCES & CREDITS :

   NOAA       Earth
Advisory